Time;durP1;ratioP1;P1;durP2;ratioP2;P2;SDS_P1;SDS_P2;PMS_P1;PMS_P2;Temp;Humidity;BMP_temperature;BMP_pressure;BME280_temperature;BME280_humidity;BME280_pressure;Samples;Min_cycle;Max_cycle;Signal;HPM_P1;HPM_P2
2023/07/11 00:04:46;;;;;;;;;;;;;;;22.34;58.30;100591.03;10373612;28;97508;-88
2023/07/11 00:09:52;;;;;;;2.90;1.60;;;;;;;22.12;58.03;100596.47;10373570;28;96841;-88
2023/07/11 00:14:57;;;;;;;3.35;1.73;;;;;;;22.15;58.22;100590.84;10372570;28;96931;-88
2023/07/11 00:20:04;;;;;;;2.45;1.60;;;;;;;22.00;58.69;100589.44;10372283;28;97237;-89
2023/07/11 00:25:14;;;;;;;3.45;1.73;;;;;;;21.99;58.71;100586.84;10372396;28;96907;-88
2023/07/11 00:30:18;;;;;;;3.85;1.70;;;;;;;22.00;58.78;100584.06;10372442;28;96815;-89
2023/07/11 00:35:23;;;;;;;2.40;1.42;;;;;;;21.90;59.12;100583.06;10373138;28;96694;-89
2023/07/11 00:40:32;;;;;;;3.47;1.63;;;;;;;21.83;59.22;100576.47;10372864;28;96709;-88
2023/07/11 00:46:02;;;;;;;2.97;1.67;;;;;;;21.82;59.30;100568.56;10371811;28;96907;-88
2023/07/11 00:51:10;;;;;;;2.90;1.45;;;;;;;21.74;59.62;100561.19;10370807;28;96777;-88
2023/07/11 00:56:22;;;;;;;2.58;1.60;;;;;;;21.80;59.27;100566.03;10371651;28;96994;-88
2023/07/11 01:01:28;;;;;;;2.35;1.42;;;;;;;21.82;59.57;100569.44;10372016;28;96907;-89
2023/07/11 01:06:33;;;;;;;2.55;1.70;;;;;;;21.70;59.81;100548.13;10371604;28;97317;-88
2023/07/11 01:11:55;;;;;;;3.75;2.08;;;;;;;21.61;60.49;100549.72;10371407;28;96675;-89
2023/07/11 01:17:01;;;;;;;3.72;1.55;;;;;;;21.55;60.61;100541.34;10354903;28;96831;-89
2023/07/11 01:22:09;;;;;;;3.90;1.88;;;;;;;21.52;60.39;100548.66;10348904;28;96613;-88
2023/07/11 01:27:14;;;;;;;2.30;1.33;;;;;;;21.52;60.38;100543.28;10371129;28;96588;-88
2023/07/11 01:32:21;;;;;;;3.35;1.80;;;;;;;21.57;60.56;100547.44;10378381;28;96738;-89
2023/07/11 01:37:27;;;;;;;2.33;1.60;;;;;;;21.35;60.84;100534.88;10377727;28;96685;-88
2023/07/11 01:42:31;;;;;;;4.15;1.73;;;;;;;21.29;61.23;100538.91;10376716;28;97355;-89
2023/07/11 01:47:36;;;;;;;3.63;1.52;;;;;;;21.10;61.85;100529.75;10377360;28;96615;-89
2023/07/11 01:52:44;;;;;;;2.58;1.85;;;;;;;21.08;61.60;100521.00;10335744;28;96747;-89
2023/07/11 01:57:48;;;;;;;3.78;2.08;;;;;;;20.70;62.98;100523.97;10335279;28;96948;-89
2023/07/11 02:02:52;;;;;;;4.18;1.83;;;;;;;20.83;62.52;100523.84;10335391;28;96701;-89
2023/07/11 02:07:58;;;;;;;2.63;1.55;;;;;;;20.77;62.80;100519.00;10364054;28;96710;-89
2023/07/11 02:13:02;;;;;;;3.13;1.83;;;;;;;20.78;62.56;100526.91;10376579;28;98045;-90
2023/07/11 02:18:07;;;;;;;3.20;1.80;;;;;;;20.77;62.57;100525.22;10377448;28;96768;-89
2023/07/11 02:23:15;;;;;;;3.35;2.15;;;;;;;20.49;63.04;100522.06;10376220;28;98056;-90
2023/07/11 02:28:19;;;;;;;2.70;2.03;;;;;;;19.99;64.79;100518.69;10376618;28;96662;-89
2023/07/11 02:33:23;;;;;;;2.55;1.60;;;;;;;20.16;64.22;100528.97;10374826;28;96764;-89
2023/07/11 02:38:30;;;;;;;3.60;1.90;;;;;;;20.11;64.24;100522.25;10376812;28;96933;-89
2023/07/11 02:43:35;;;;;;;3.13;1.75;;;;;;;20.28;63.59;100517.38;10374955;27;96803;-89
2023/07/11 02:48:40;;;;;;;3.58;1.92;;;;;;;20.34;63.46;100521.44;10375795;28;96992;-89
2023/07/11 02:53:48;;;;;;;3.20;2.17;;;;;;;20.27;63.79;100512.97;10375144;28;97917;-89
2023/07/11 02:58:53;;;;;;;3.03;1.77;;;;;;;20.22;63.94;100512.47;10375813;28;96875;-90
2023/07/11 03:03:57;;;;;;;2.97;1.65;;;;;;;20.26;63.71;100519.28;10374963;28;97360;-90
2023/07/11 03:09:04;;;;;;;2.53;1.98;;;;;;;20.31;63.74;100516.28;10375824;28;97026;-90
2023/07/11 03:14:08;;;;;;;4.15;1.75;;;;;;;20.26;63.60;100513.94;10374820;28;96787;-89
2023/07/11 03:19:13;;;;;;;4.18;1.80;;;;;;;20.11;63.92;100511.56;10374981;28;96695;-90
2023/07/11 03:24:20;;;;;;;5.20;2.50;;;;;;;20.14;64.08;100517.53;10373793;28;97532;-91
2023/07/11 03:29:25;;;;;;;5.18;1.95;;;;;;;20.05;64.55;100526.22;10375029;28;96766;-89
2023/07/11 03:34:30;;;;;;;3.28;2.00;;;;;;;20.02;64.45;100521.13;10375448;28;96772;-89
2023/07/11 03:39:37;;;;;;;2.47;1.75;;;;;;;19.73;65.07;100513.56;10374565;28;96726;-92
2023/07/11 03:44:44;;;;;;;5.20;2.08;;;;;;;19.81;65.21;100513.81;10374703;28;96763;-91
2023/07/11 03:49:48;;;;;;;3.10;1.73;;;;;;;19.76;64.87;100508.84;10375319;28;96892;-90
2023/07/11 03:54:55;;;;;;;4.25;1.85;;;;;;;19.82;64.89;100508.38;10373142;28;96706;-88
2023/07/11 03:59:59;;;;;;;2.60;1.80;;;;;;;19.81;65.01;100517.38;10374917;28;97557;-89
2023/07/11 04:05:03;;;;;;;2.63;1.77;;;;;;;19.78;64.90;100522.06;10373796;28;97783;-89
2023/07/11 04:10:12;;;;;;;3.83;1.90;;;;;;;19.82;64.93;100515.56;10373123;28;96785;-89
2023/07/11 04:15:16;;;;;;;4.05;2.10;;;;;;;19.48;66.11;100513.59;10371507;28;96778;-90
2023/07/11 04:20:21;;;;;;;3.17;1.98;;;;;;;19.36;66.30;100512.66;10374228;28;96664;-91
2023/07/11 04:25:27;;;;;;;3.88;1.83;;;;;;;19.51;65.95;100519.56;10412822;28;96794;-92
2023/07/11 04:30:31;;;;;;;4.70;2.25;;;;;;;19.50;65.98;100517.03;10413877;28;97123;-92
2023/07/11 04:35:34;;;;;;;5.20;2.03;;;;;;;19.80;65.32;100510.31;10414076;28;96711;-89
2023/07/11 04:40:39;;;;;;;2.90;2.10;;;;;;;19.98;64.70;100503.63;10412994;27;97453;-90
2023/07/11 04:45:44;;;;;;;4.35;2.08;;;;;;;19.58;65.98;100520.00;10414305;28;97674;-93
2023/07/11 04:50:48;;;;;;;3.45;2.15;;;;;;;19.61;66.04;100512.63;10415468;28;97181;-90
2023/07/11 04:56:00;;;;;;;3.38;2.17;;;;;;;19.49;66.29;100513.53;10403140;28;96656;-90
2023/07/11 05:01:09;;;;;;;4.13;2.03;;;;;;;19.57;65.91;100515.63;10371574;28;97053;-92
2023/07/11 05:06:13;;;;;;;3.40;2.00;;;;;;;19.44;66.22;100525.50;10376887;28;96675;-93
2023/07/11 05:11:23;;;;;;;3.67;2.08;;;;;;;19.49;65.99;100523.34;10380325;28;97492;-93
2023/07/11 05:16:28;;;;;;;2.75;1.95;;;;;;;19.51;65.68;100519.56;10387062;28;96804;-93
2023/07/11 05:21:33;;;;;;;3.35;2.22;;;;;;;18.89;68.01;100518.66;10372539;28;96703;-93
2023/07/11 05:26:40;;;;;;;2.38;1.85;;;;;;;19.41;66.26;100512.38;10378273;28;97160;-92
2023/07/11 05:31:45;;;;;;;4.32;1.95;;;;;;;19.51;66.06;100518.75;10379304;28;96982;-93
2023/07/11 05:36:50;;;;;;;4.07;2.13;;;;;;;19.51;66.10;100524.09;10378504;28;96641;-92
2023/07/11 05:41:57;;;;;;;5.13;2.38;;;;;;;19.60;66.13;100524.25;10379457;28;96655;-92
2023/07/11 05:47:02;;;;;;;4.45;2.17;;;;;;;19.49;66.78;100531.34;10379178;28;97687;-92
2023/07/11 05:52:07;;;;;;;2.75;1.85;;;;;;;19.73;65.84;100535.78;10378221;28;97428;-92
2023/07/11 05:57:15;;;;;;;2.78;1.98;;;;;;;19.70;66.17;100535.16;10376359;28;96975;-90
2023/07/11 06:02:19;;;;;;;3.80;1.80;;;;;;;19.73;66.20;100541.13;10376788;28;97671;-91
2023/07/11 06:07:23;;;;;;;3.78;1.90;;;;;;;19.73;66.17;100543.78;10377620;28;96645;-92
2023/07/11 06:12:29;;;;;;;3.30;2.30;;;;;;;19.78;66.15;100543.44;10376824;28;97437;-90
2023/07/11 06:17:34;;;;;;;4.63;2.22;;;;;;;19.74;66.48;100550.81;10376732;28;96674;-90
2023/07/11 06:22:38;;;;;;;3.92;2.10;;;;;;;19.78;66.54;100546.97;10376555;28;97247;-90
2023/07/11 06:27:45;;;;;;;3.72;2.10;;;;;;;19.68;66.93;100553.09;10376077;28;96701;-90
2023/07/11 06:32:50;;;;;;;3.78;2.30;;;;;;;19.90;66.40;100551.41;10377964;28;97517;-90
2023/07/11 06:37:53;;;;;;;4.78;2.20;;;;;;;19.80;66.66;100555.72;10376623;28;96812;-90
2023/07/11 06:42:59;;;;;;;4.72;2.80;;;;;;;20.03;66.18;100562.91;10375731;28;97533;-89
2023/07/11 06:48:03;;;;;;;3.55;2.38;;;;;;;20.18;65.70;100564.47;10374867;28;97608;-89
2023/07/11 06:53:06;;;;;;;4.38;2.70;;;;;;;20.38;65.32;100571.88;10375037;28;96747;-89
2023/07/11 06:58:10;;;;;;;2.90;1.90;;;;;;;20.67;64.87;100561.63;10375670;28;96791;-88
2023/07/11 07:03:14;;;;;;;5.65;2.35;;;;;;;20.68;64.66;100570.50;10374561;28;97661;-89
2023/07/11 07:08:20;;;;;;;4.97;2.63;;;;;;;20.82;64.30;100573.84;10374954;28;97583;-89
2023/07/11 07:13:25;;;;;;;5.53;2.63;;;;;;;21.09;63.90;100584.22;10375041;28;97552;-89
2023/07/11 07:18:32;;;;;;;4.03;2.42;;;;;;;21.45;62.98;100594.75;10372815;28;96866;-89
2023/07/11 07:23:36;;;;;;;3.88;2.88;;;;;;;21.36;63.41;100603.53;10374786;28;96990;-88
2023/07/11 07:28:40;;;;;;;4.10;2.23;;;;;;;21.51;63.21;100599.66;10365919;28;97369;-88
2023/07/11 07:33:43;;;;;;;5.18;2.95;;;;;;;21.61;63.18;100603.28;10332375;28;98028;-88
2023/07/11 07:38:47;;;;;;;3.78;2.28;;;;;;;21.72;62.90;100600.63;10331251;28;96832;-88
2023/07/11 07:43:52;;;;;;;4.10;1.80;;;;;;;21.86;62.61;100602.19;10332783;28;96886;-88
2023/07/11 07:48:55;;;;;;;3.42;2.20;;;;;;;21.95;62.43;100599.59;10404160;28;96735;-88
2023/07/11 07:53:58;;;;;;;3.88;2.33;;;;;;;22.23;61.92;100603.63;10411690;22;100103;-88
2023/07/11 07:59:03;;;;;;;3.25;2.15;;;;;;;22.41;61.57;100592.22;10373186;28;97371;-87
2023/07/11 08:04:06;;;;;;;5.13;2.50;;;;;;;22.63;61.14;100593.13;10373814;28;96917;-88
2023/07/11 08:09:10;;;;;;;5.27;2.23;;;;;;;22.89;61.04;100586.44;10372876;28;96740;-87
2023/07/11 08:14:16;;;;;;;5.10;2.28;;;;;;;23.11;60.33;100594.38;10373196;28;97122;-87
2023/07/11 08:19:21;;;;;;;3.45;2.08;;;;;;;23.34;60.00;100598.56;10373798;28;96912;-89
2023/07/11 08:24:26;;;;;;;3.25;2.00;;;;;;;23.52;60.22;100588.94;10372591;28;96698;-86
2023/07/11 08:29:33;;;;;;;3.83;2.55;;;;;;;23.85;60.12;100587.81;10371639;28;96670;-88
2023/07/11 08:34:37;;;;;;;3.80;1.85;;;;;;;24.15;59.56;100593.97;10372220;28;97439;-87
2023/07/11 08:39:41;;;;;;;3.05;1.70;;;;;;;24.29;59.09;100596.28;10372443;28;96697;-86
2023/07/11 08:44:51;;;;;;;3.33;1.50;;;;;;;24.66;58.37;100589.25;10372119;28;96907;-87
2023/07/11 08:50:01;;;;;;;2.83;1.65;;;;;;;24.94;58.03;100586.66;10371789;28;96801;-88
2023/07/11 08:55:12;;;;;;;3.08;1.63;;;;;;;24.71;56.06;100592.38;10375181;28;96848;-92
2023/07/11 09:00:18;;;;;;;2.08;1.27;;;;;;;24.39;56.12;100585.56;10378192;28;96795;-89
2023/07/11 09:05:35;;;;;;;2.30;1.33;;;;;;;24.79;54.54;100579.03;10376237;28;97753;-91
2023/07/11 09:10:44;;;;;;;1.88;1.10;;;;;;;24.74;53.57;100575.91;10384084;28;97294;-88
2023/07/11 09:16:01;;;;;;;2.30;1.63;;;;;;;24.73;54.19;100584.13;10421205;28;96600;-91
2023/07/11 09:21:14;;;;;;;2.70;1.20;;;;;;;25.19;53.54;100583.41;10416674;27;96764;-92
2023/07/11 09:26:26;;;;;;;2.77;1.33;;;;;;;25.30;53.12;100564.34;10419656;27;97209;-90
2023/07/11 09:31:38;;;;;;;3.10;2.10;;;;;;;25.22;53.24;100573.19;10420707;28;96614;-89
2023/07/11 09:36:42;;;;;;;1.60;1.10;;;;;;;25.48;52.71;100571.56;10423781;27;97192;-93
2023/07/11 09:41:55;;;;;;;2.57;1.47;;;;;;;25.67;52.00;100568.78;10420229;28;96706;-88
2023/07/11 09:47:06;;;;;;;1.95;1.38;;;;;;;25.69;51.94;100576.75;10392229;27;97329;-93
2023/07/11 09:52:18;;;;;;;3.25;1.30;;;;;;;26.06;51.68;100582.91;10383381;28;96694;-91
2023/07/11 09:57:22;;;;;;;2.90;1.83;;;;;;;25.82;52.29;100580.78;10387133;28;97085;-88
2023/07/11 10:02:27;;;;;;;3.17;1.20;;;;;;;26.26;51.95;100584.50;10404386;28;96855;-90
2023/07/11 10:07:34;;;;;;;2.38;1.35;;;;;;;26.47;51.74;100576.16;10429258;27;96642;-91
2023/07/11 10:12:38;;;;;;;4.10;1.70;;;;;;;26.45;51.87;100580.84;10429455;28;97499;-92
2023/07/11 10:17:45;;;;;;;2.22;1.60;;;;;;;26.74;51.30;100574.19;10402295;28;96889;-91
2023/07/11 10:22:50;;;;;;;3.40;1.63;;;;;;;26.48;51.52;100575.97;10427513;28;96741;-93
2023/07/11 10:27:57;;;;;;;2.67;1.80;;;;;;;26.87;50.62;100560.31;10427631;28;96703;-88
2023/07/11 10:33:06;;;;;;;3.15;1.60;;;;;;;26.94;50.29;100554.09;10431755;28;96811;-93
2023/07/11 10:38:28;;;;;;;2.22;1.35;;;;;;;27.04;50.83;100564.00;10429297;28;97075;-91
2023/07/11 10:43:37;;;;;;;3.42;1.52;;;;;;;27.33;50.29;100564.53;10429290;28;96918;-86
2023/07/11 10:48:50;;;;;;;3.40;1.80;;;;;;;27.20;50.04;100569.53;10431919;28;96968;-93
2023/07/11 10:54:03;;;;;;;2.87;1.53;;;;;;;27.48;49.72;100573.72;10430356;28;96732;-94
2023/07/11 10:59:13;;;;;;;3.27;1.50;;;;;;;27.45;49.78;100576.75;10421586;28;96641;-88
2023/07/11 11:04:35;;;;;;;3.22;1.60;;;;;;;27.67;48.94;100589.75;10387282;28;97661;-92
2023/07/11 11:09:44;;;;;;;2.58;1.75;;;;;;;27.94;49.04;100586.84;10397802;28;96971;-92
2023/07/11 11:14:53;;;;;;;2.25;1.52;;;;;;;28.04;48.73;100588.41;10429452;27;96846;-93
2023/07/11 11:20:12;;;;;;;2.50;1.50;;;;;;;28.10;48.56;100576.91;10430566;28;96759;-92
2023/07/11 11:25:20;;;;;;;2.97;1.70;;;;;;;28.17;48.63;100585.19;10428780;27;96673;-93
2023/07/11 11:30:38;;;;;;;3.03;1.92;;;;;;;28.15;48.68;100584.53;10386064;28;97452;-90
2023/07/11 11:35:54;;;;;;;2.63;1.88;;;;;;;28.38;48.44;100580.22;10386959;28;97542;-93
2023/07/11 11:41:02;;;;;;;2.00;1.60;;;;;;;28.41;47.90;100581.75;10387649;28;97598;-91
2023/07/11 11:46:11;;;;;;;2.85;1.77;;;;;;;28.68;47.85;100579.59;10387852;28;96916;-90
2023/07/11 11:51:23;;;;;;;2.67;2.00;;;;;;;28.77;48.06;100575.03;10386324;28;96671;-91
2023/07/11 11:56:28;;;;;;;3.15;2.05;;;;;;;28.85;47.59;100584.00;10384884;28;96867;-91
2023/07/11 12:01:41;;;;;;;3.45;1.80;;;;;;;29.06;47.84;100578.09;10385258;28;96754;-92
2023/07/11 12:06:48;;;;;;;3.22;1.80;;;;;;;29.22;47.25;100567.22;10385546;28;96586;-91
2023/07/11 12:12:09;;;;;;;3.05;1.98;;;;;;;29.46;45.67;100556.31;10388050;28;97227;-90
2023/07/11 12:17:47;;;;;;;2.15;1.58;;;;;;;29.49;45.80;100560.53;10391651;28;96584;-87
2023/07/11 12:23:20;;;;;;;3.55;1.80;;;;;;;29.37;45.18;100553.78;10428052;27;96859;-91
2023/07/11 12:28:47;;;;;;;2.43;1.50;;;;;;;29.61;45.52;100551.03;10424129;28;97294;-89
2023/07/11 12:34:04;;;;;;;1.77;1.30;;;;;;;29.65;45.06;100555.09;10425698;28;96770;-91
2023/07/11 12:39:33;;;;;;;2.00;1.70;;;;;;;29.69;45.31;100554.59;10423990;28;96838;-91
2023/07/11 12:44:40;;;;;;;2.40;1.48;;;;;;;29.95;44.35;100554.28;10428374;28;97017;-88
2023/07/11 12:49:49;;;;;;;3.30;1.60;;;;;;;29.94;44.56;100558.00;10426193;28;96863;-92
2023/07/11 12:54:58;;;;;;;2.78;1.65;;;;;;;30.24;44.37;100549.06;10425309;28;96719;-92
2023/07/11 13:00:07;;;;;;;2.85;1.60;;;;;;;30.35;44.23;100545.09;10407713;27;97148;-91
2023/07/11 13:05:13;;;;;;;2.45;1.67;;;;;;;30.42;43.99;100544.16;10383780;28;96839;-89
2023/07/11 13:10:24;;;;;;;2.08;1.20;;;;;;;30.39;43.99;100536.38;10405769;28;97496;-91
2023/07/11 13:15:30;;;;;;;3.45;1.73;;;;;;;29.97;44.90;100550.38;10419839;28;96751;-89
2023/07/11 13:20:40;;;;;;;3.17;1.70;;;;;;;30.22;44.36;100545.69;10338762;28;96617;-87
2023/07/11 13:25:48;;;;;;;3.40;1.30;;;;;;;29.99;45.16;100555.59;10353076;28;96837;-89
2023/07/11 13:30:58;;;;;;;2.88;1.50;;;;;;;30.31;44.82;100550.03;10389198;28;96749;-87
2023/07/11 13:36:06;;;;;;;3.33;1.38;;;;;;;30.64;44.71;100543.34;10389747;28;96939;-92
2023/07/11 13:41:18;;;;;;;2.30;1.40;;;;;;;30.21;44.81;100539.38;10387299;28;97153;-91
2023/07/11 13:46:30;;;;;;;3.35;1.35;;;;;;;30.34;44.86;100554.25;10388371;28;96777;-92
2023/07/11 13:51:37;;;;;;;2.55;1.67;;;;;;;30.39;44.63;100543.69;10388142;28;96577;-87
2023/07/11 13:56:45;;;;;;;2.40;1.40;;;;;;;30.06;45.16;100557.44;10385333;28;96586;-89
2023/07/11 14:01:49;;;;;;;3.42;1.60;;;;;;;30.41;44.36;100545.22;10388515;28;96848;-89
2023/07/11 14:06:53;;;;;;;3.00;1.50;;;;;;;30.03;44.17;100551.53;10385978;28;96599;-90
2023/07/11 14:12:01;;;;;;;2.83;1.42;;;;;;;30.02;44.24;100552.56;10388009;28;96816;-90
2023/07/11 14:17:06;;;;;;;2.45;1.30;;;;;;;30.25;44.03;100554.31;10386396;28;96652;-91
2023/07/11 14:22:15;;;;;;;4.40;1.50;;;;;;;30.16;43.91;100543.69;10387445;28;97055;-90
2023/07/11 14:27:26;;;;;;;2.58;1.20;;;;;;;29.83;44.57;100548.38;10385505;28;97673;-93
2023/07/11 14:32:31;;;;;;;2.53;1.40;;;;;;;29.77;44.28;100559.13;10385082;28;96661;-89
2023/07/11 14:37:36;;;;;;;3.05;1.25;;;;;;;29.94;43.90;100558.00;10346752;28;96933;-92
2023/07/11 14:42:44;;;;;;;2.50;1.27;;;;;;;29.90;43.74;100551.28;10345330;28;97513;-91
2023/07/11 14:47:51;;;;;;;2.80;1.63;;;;;;;29.87;43.97;100547.03;10341744;28;96651;-87
2023/07/11 14:52:56;;;;;;;2.58;1.40;;;;;;;30.22;43.03;100561.97;10368439;28;96839;-81
2023/07/11 14:58:01;;;;;;;2.70;1.15;;;;;;;30.19;43.20;100559.63;10372064;28;96976;-79
2023/07/11 15:03:11;;;;;;;1.15;0.98;;;;;;;29.94;42.86;100561.59;10367150;28;97509;-79
2023/07/11 15:08:25;;;;;;;2.13;1.10;;;;;;;30.17;42.79;100562.50;10381441;28;96804;-84
2023/07/11 15:13:36;;;;;;;2.53;1.20;;;;;;;30.24;42.57;100558.06;10374603;28;97334;-80
2023/07/11 15:18:43;;;;;;;2.15;1.10;;;;;;;30.37;42.54;100568.31;10366449;28;98892;-80
2023/07/11 15:23:46;;;;;;;3.30;1.30;;;;;;;30.29;42.24;100573.81;10367529;28;96795;-79
2023/07/11 15:28:51;;;;;;;2.08;1.10;;;;;;;30.07;42.24;100580.03;10368208;28;97580;-77
2023/07/11 15:33:54;;;;;;;2.10;0.85;;;;;;;30.05;42.06;100568.47;10366700;28;98705;-79
2023/07/11 15:38:57;;;;;;;1.55;0.80;;;;;;;30.06;42.32;100567.44;10366380;28;97161;-76
2023/07/11 15:44:02;;;;;;;2.08;0.90;;;;;;;29.78;42.75;100568.97;10363689;28;98862;-80
2023/07/11 15:49:14;;;;;;;2.53;0.93;;;;;;;29.77;42.90;100565.41;10364817;28;97587;-77
2023/07/11 15:54:18;;;;;;;2.88;1.02;;;;;;;29.77;42.90;100568.09;10360783;28;98173;-77
2023/07/11 15:59:23;;;;;;;2.20;1.00;;;;;;;29.38;43.50;100579.91;10366718;28;98122;-77
2023/07/11 16:04:26;;;;;;;1.98;0.93;;;;;;;29.35;43.58;100577.53;10367056;28;97569;-77
2023/07/11 16:09:30;;;;;;;1.98;1.00;;;;;;;29.17;43.82;100586.69;10366917;28;96874;-78
2023/07/11 16:14:35;;;;;;;2.10;1.02;;;;;;;28.95;43.93;100578.41;10359916;28;97558;-77
2023/07/11 16:19:38;;;;;;;1.67;0.77;;;;;;;28.79;44.14;100575.69;10367139;28;98355;-77
2023/07/11 16:24:41;;;;;;;1.40;0.73;;;;;;;28.80;44.54;100575.53;10369360;28;98534;-77
2023/07/11 16:29:48;;;;;;;3.10;0.82;;;;;;;28.69;44.56;100570.44;10359548;28;98913;-78
2023/07/11 16:34:51;;;;;;;1.92;0.95;;;;;;;28.45;45.07;100559.59;10367698;28;97394;-75
2023/07/11 16:39:54;;;;;;;2.38;1.25;;;;;;;28.44;45.36;100566.03;10369846;28;96746;-77
2023/07/11 16:44:59;;;;;;;2.53;1.25;;;;;;;28.38;45.76;100572.09;10365780;28;97082;-77
2023/07/11 16:50:02;;;;;;;3.33;1.10;;;;;;;28.40;46.04;100570.06;10371144;28;97692;-76
2023/07/11 16:55:10;;;;;;;3.25;1.10;;;;;;;28.27;45.67;100558.88;10361953;28;97946;-77
2023/07/11 17:00:21;;;;;;;2.15;1.13;;;;;;;28.31;46.40;100559.41;10361919;28;97225;-77
2023/07/11 17:05:25;;;;;;;2.13;1.08;;;;;;;28.08;46.30;100557.28;10362052;28;97750;-76
2023/07/11 17:10:30;;;;;;;1.63;1.08;;;;;;;28.15;46.38;100557.47;10362972;28;96948;-77
2023/07/11 17:15:35;;;;;;;2.00;1.10;;;;;;;28.19;46.50;100550.69;10363516;28;96993;-77
2023/07/11 17:20:38;;;;;;;1.40;0.98;;;;;;;28.23;46.50;100548.50;10362126;28;98267;-77
2023/07/11 17:25:42;;;;;;;2.58;1.27;;;;;;;28.24;46.28;100550.22;10366376;28;96970;-77
2023/07/11 17:30:46;;;;;;;1.75;1.10;;;;;;;28.16;46.81;100547.47;10363478;28;98373;-77
2023/07/11 17:35:51;;;;;;;2.33;1.00;;;;;;;28.03;46.85;100540.69;10363923;28;98353;-77
2023/07/11 17:40:54;;;;;;;;;;;;;;;28.13;46.40;100540.56;10367063;28;97021;-75
2023/07/11 17:45:59;;;;;;;2.05;1.17;;;;;;;28.06;46.92;100534.94;10364698;28;96844;-78
2023/07/11 17:51:22;;;;;;;3.50;1.05;;;;;;;27.94;46.89;100547.06;10366253;28;97603;-76
2023/07/11 17:56:25;;;;;;;3.67;1.10;;;;;;;27.92;46.78;100549.13;10303942;28;1596465;-75
2023/07/11 18:01:46;;;;;;;1.98;1.00;;;;;;;27.66;47.64;100540.22;10361515;28;96747;-73
2023/07/11 18:06:49;;;;;;;1.85;0.95;;;;;;;27.48;47.86;100530.47;10370603;28;96814;-76
2023/07/11 18:11:53;;;;;;;1.65;1.00;;;;;;;27.41;47.96;100534.81;10368931;28;96789;-75
2023/07/11 18:16:57;;;;;;;2.78;1.02;;;;;;;27.28;48.52;100546.09;10376949;28;96929;-75
2023/07/11 18:22:02;;;;;;;2.50;1.13;;;;;;;27.05;48.73;100546.75;10376167;28;97184;-76
